• Join FlightAware (Why Join?)
  • Login
  • US Flag 
06:56AM EDT


 

Airport Tracker/Info


-or-


 

Live Flight TrackerFlight Track Log ✈ JZA8474 ✈ 20-May-2013 ✈ CYCG - CYYC

Flight Track Log - Related Links

Times and Time Zones

All times are in EDT time to prevent confusion due to time zone crossing. See the JZA8474 flight status page for this flight to view local times or setup timezone preferences in your user account.

Time Position Orientation Groundspeed Altitude Reporting Facility
EDT Latitude Longitude Course Direction KTS MPH feet Rate Location/Type
02:54PM 49.6497 -117.3275 36° Northeast  Level FlightAware Approximate
02:55PM 49.7063 -117.2638 36° Northeast  Level FlightAware Approximate
02:56PM 49.7624 -117.1991 37° Northeast  Level FlightAware Approximate
02:56PM 49.5167 -117.3333 37° Northeast 170 196 11,300  Level Edmonton Center
02:57PM 49.8181 -117.1334 37° Northeast  Level FlightAware Approximate
02:57PM 49.5500 -117.2500 58° Northeast 170 196 12,500  Level Edmonton Center
02:58PM 49.8737 -117.0676 37° Northeast  Level FlightAware Approximate
02:58PM 49.5833 -117.2167 33° Northeast 170 196 13,500  Level Edmonton Center
02:59PM 49.9289 -117.0008 40° Northeast  Level FlightAware Approximate
02:59PM 49.6000 -117.1333 73° East 180 207 14,600  Level Edmonton Center
03:00PM 49.9827 -116.9311 40° Northeast  Level FlightAware Approximate
03:00PM 49.6500 -117.1000 23° Northeast 180 207 15,500  Level Edmonton Center
03:01PM 50.0364 -116.8613 40° Northeast  Level FlightAware Approximate
03:01PM 49.6833 -117.0333 52° Northeast 190 219 16,400  Level Edmonton Center
03:02PM 50.0903 -116.7918 37° Northeast  Level FlightAware Approximate
03:02PM 49.7167 -116.9833 44° Northeast 190 219 17,400  Level Edmonton Center
03:03PM 49.7500 -116.9167 52° Northeast 190 219 18,000 720 Climbing Edmonton Center
03:04PM 49.8000 -116.8500 41° Northeast 190 219 18,900 480 Climbing Edmonton Center
03:05PM 49.8333 -116.7833 52° Northeast 200 230 19,000  Climbing Edmonton Center
03:06PM 49.8833 -116.7167 41° Northeast 230 265 19,000  Level Edmonton Center
03:07PM 49.9167 -116.6500 52° Northeast 250 288 19,000  Level Edmonton Center
03:08PM 49.9667 -116.5500 52° Northeast 260 299 19,000  Level Edmonton Center
03:09PM 50.0167 -116.4667 47° Northeast 270 311 19,000  Level Edmonton Center
03:10PM 50.0667 -116.3667 52° Northeast 270 311 19,000  Level Edmonton Center
03:11PM 50.1167 -116.3000 41° Northeast 260 299 19,000  Level Edmonton Center
03:12PM 50.1667 -116.2000 52° Northeast 270 311 19,000  Level Edmonton Center
03:13PM 50.2167 -116.1167 47° Northeast 270 311 19,000  Level Edmonton Center
03:14PM 50.2667 -116.0167 52° Northeast 260 299 19,000  Level Edmonton Center
03:15PM 50.3167 -115.9500 40° Northeast 270 311 19,000  Level Edmonton Center
03:16PM 50.3667 -115.8500 52° Northeast 270 311 19,000  Level Edmonton Center
03:17PM 50.4167 -115.7667 47° Northeast 270 311 19,000  Level Edmonton Center
03:18PM 50.4667 -115.6667 52° Northeast 270 311 19,000  Level Edmonton Center
03:19PM 50.5167 -115.5667 52° Northeast 270 311 19,000  Level Edmonton Center
03:20PM 50.5667 -115.4833 47° Northeast 270 311 19,000  Level Edmonton Center
03:21PM 50.6000 -115.4000 58° Northeast 270 311 19,000  Level Edmonton Center
03:22PM 50.6667 -115.3167 38° Northeast 270 311 19,000  Level Edmonton Center
03:23PM 50.7167 -115.2167 52° Northeast 270 311 19,000 -300 Level Edmonton Center
03:24PM 50.7667 -115.1167 52° Northeast 270 311 18,500 -960 Descending Edmonton Center
03:25PM 50.8167 -115.0333 46° Northeast 290 334 17,100 -1,620 Descending Edmonton Center
03:26PM 50.8500 -114.9000 68° East 300 345 15,300 -1,620 Descending Edmonton Center
03:27PM 50.8833 -114.7667 68° East 300 345 13,900 -1,200 Descending Edmonton Center
03:28PM 50.9167 -114.6667 62° Northeast 270 311 12,900 -1,200 Descending Edmonton Center
03:29PM 50.9500 -114.6000 52° Northeast 270 311 11,600 -1,200 Descending Edmonton Center
03:30PM 51.0333 -114.5000 37° Northeast 270 311 10,500 -1,200 Descending Edmonton Center
03:31PM 51.0833 -114.4333 40° Northeast 270 311 9,200 -1,200 Descending Edmonton Center
03:32PM 51.1500 -114.3667 32° Northeast 270 311 8,100 -1,200 Descending Edmonton Center
03:33PM 51.1667 -114.3000 68° East 230 265 6,800 -1,320 Descending Edmonton Center
03:34PM 51.1333 -114.1833 114° Southeast 220 253 5,500 -960 Descending Edmonton Center
03:35PM 51.1167 -114.1167 112° Southeast 160 184 4,900 -900 Descending Edmonton Center
03:36PM 51.1000 -114.0667 118° Southeast 130 150 3,700 -720 Descending Edmonton Center
03:37PM 51.0833 -114.0333 129° Southeast 130 150 3,500 -240 Descending Edmonton Center